Time;durP1;ratioP1;P1;durP2;ratioP2;P2;SDS_P1;SDS_P2;PMS_P1;PMS_P2;Temp;Humidity;BMP_temperature;BMP_pressure;BME280_temperature;BME280_humidity;BME280_pressure;Samples;Min_cycle;Max_cycle;Signal;HPM_P1;HPM_P2
2021/06/06 00:00:44;;;;;;;;;6.33;5.00;;;;;17.80;55.60;102266.41;5042182;28;45454;-91
2021/06/06 00:03:20;;;;;;;;;8.00;6.67;;;;;17.78;56.01;102263.72;5046564;28;45507;-92
2021/06/06 00:05:51;;;;;;;;;5.67;5.00;;;;;17.60;58.42;102237.78;5039242;28;47206;-92
2021/06/06 00:08:17;;;;;;;;;6.00;6.00;;;;;17.56;56.36;102241.28;5055863;28;45884;-90
2021/06/06 00:10:44;;;;;;;;;6.67;6.67;;;;;17.61;55.53;102246.66;5058303;28;45485;-92
2021/06/06 00:13:12;;;;;;;;;10.00;7.00;;;;;17.60;55.75;102248.41;5059941;28;45574;-91
2021/06/06 00:15:40;;;;;;;;;5.00;5.00;;;;;17.52;55.33;102228.81;5061950;28;47497;-90
2021/06/06 00:18:06;;;;;;;;;6.00;6.00;;;;;17.48;55.71;102226.16;5060033;28;45414;-91
2021/06/06 00:20:32;;;;;;;;;4.33;4.33;;;;;17.44;56.00;102229.63;5040136;28;45372;-91
2021/06/06 00:22:58;;;;;;;;;8.00;7.00;;;;;17.42;55.74;102236.69;5041702;28;45456;-90
2021/06/06 00:25:24;;;;;;;;;7.00;7.00;;;;;17.56;56.48;102263.44;5054624;28;46923;-90
2021/06/06 00:27:52;;;;;;;;;11.33;9.67;;;;;17.46;56.86;102253.56;5037906;28;45412;-89
2021/06/06 00:30:19;;;;;;;;;11.67;10.00;;;;;17.48;57.32;102250.06;5054243;28;45328;-91
2021/06/06 00:32:50;;;;;;;;;9.00;9.00;;;;;17.47;57.53;102252.72;5038234;28;45270;-90
2021/06/06 00:35:16;;;;;;;;;15.00;12.33;;;;;17.45;57.29;102255.34;5037326;28;47883;-91
2021/06/06 00:37:43;;;;;;;;;10.00;10.00;;;;;17.34;57.45;102241.91;5037499;28;45514;-90
2021/06/06 00:40:13;;;;;;;;;11.00;11.00;;;;;17.26;57.36;102232.94;5038954;28;45217;-90
2021/06/06 00:42:39;;;;;;;;;11.75;11.00;;;;;17.28;57.54;102236.50;5037284;28;45414;-91
2021/06/06 00:45:08;;;;;;;;;11.67;10.33;;;;;17.20;57.48;102228.44;5036902;28;47394;-93
2021/06/06 00:47:37;;;;;;;;;9.67;9.67;;;;;17.18;57.34;102218.63;5053719;28;46032;-91
2021/06/06 00:50:08;;;;;;;;;9.67;9.33;;;;;17.19;57.62;102229.31;5037260;28;45427;-92
2021/06/06 00:52:38;;;;;;;;;11.00;10.00;;;;;17.26;57.61;102242.69;5056266;28;45549;-91
2021/06/06 00:55:06;;;;;;;;;8.33;8.00;;;;;17.10;56.81;102224.72;5057830;28;48246;-92
2021/06/06 00:57:33;;;;;;;;;7.00;6.33;;;;;17.07;57.19;102218.50;5056940;28;45996;-91
2021/06/06 01:00:14;;;;;;;;;9.00;9.00;;;;;17.17;57.03;102240.78;5057497;28;45380;-92
2021/06/06 01:02:43;;;;;;;;;9.00;8.00;;;;;17.13;56.94;102239.88;5040545;28;45476;-91
2021/06/06 01:05:13;;;;;;;;;7.67;7.00;;;;;16.98;57.05;102212.19;5056827;28;48135;-91
2021/06/06 01:07:39;;;;;;;;;6.00;6.00;;;;;16.98;56.22;102216.59;5041556;28;45434;-90
2021/06/06 01:10:05;;;;;;;;;8.33;8.00;;;;;16.87;57.15;102196.06;5040966;28;45322;-91
2021/06/06 01:12:34;;;;;;;;;9.33;7.00;;;;;16.94;56.35;102218.28;5057583;28;45359;-91
2021/06/06 01:15:15;;;;;;;;;8.33;8.00;;;;;16.96;56.45;102218.31;5040096;28;47364;-92
2021/06/06 01:18:21;;;;;;;;;10.67;8.67;;;;;16.82;56.24;102202.16;5040409;28;45905;-91
2021/06/06 01:20:53;;;;;;;;;8.33;7.00;;;;;17.01;56.74;102249.38;5003195;28;45433;-90
2021/06/06 01:23:54;;;;;;;;;10.33;9.33;;;;;16.98;56.83;102248.47;5002828;28;45481;-91
2021/06/06 01:26:30;;;;;;;;;9.67;8.67;;;;;16.82;56.93;102220.75;5002541;28;48255;-93
2021/06/06 01:29:14;;;;;;;;;11.00;8.00;;;;;16.77;57.40;102213.63;5002791;28;45269;-90
2021/06/06 01:31:46;;;;;;;;;9.33;8.67;;;;;16.72;57.12;102207.34;5003114;28;45251;-92
2021/06/06 01:34:16;;;;;;;;;9.33;9.33;;;;;16.81;57.34;102226.94;5003429;28;45337;-90
2021/06/06 01:36:46;;;;;;;;;8.00;8.00;;;;;16.72;57.31;102212.66;5002441;28;47959;-91
2021/06/06 01:39:21;;;;;;;;;9.00;7.33;;;;;16.82;57.67;102236.69;5019906;28;45535;-92
2021/06/06 01:41:58;;;;;;;;;9.33;7.33;;;;;16.67;57.86;102211.69;5003479;28;45426;-92
2021/06/06 01:44:29;;;;;;;;;9.00;8.33;;;;;16.69;57.79;102220.56;5021485;28;45443;-92
2021/06/06 01:47:02;;;;;;;;;8.67;8.00;;;;;16.74;57.49;102231.25;5004272;28;46933;-91
2021/06/06 01:49:30;;;;;;;;;8.33;6.33;;;;;16.49;57.80;102188.41;5021016;28;45365;-91
2021/06/06 01:51:59;;;;;;;;;7.33;6.00;;;;;16.62;57.92;102214.28;5012613;28;45334;-91
2021/06/06 01:54:28;;;;;;;;;7.33;7.33;;;;;16.64;57.65;102217.88;5022407;28;44859;-91
2021/06/06 01:56:56;;;;;;;;;6.00;6.00;;;;;16.50;57.77;102200.78;5030715;28;47950;-91
2021/06/06 01:59:32;;;;;;;;;8.33;8.33;;;;;16.43;57.84;102191.84;5061914;28;45321;-91
2021/06/06 02:01:58;;;;;;;;;8.67;8.67;;;;;16.52;57.69;102207.91;5066521;28;45278;-92
2021/06/06 02:04:24;;;;;;;;;7.00;7.00;;;;;16.48;57.97;102206.09;5068910;28;45209;-90
2021/06/06 02:06:58;;;;;;;;;7.00;6.00;;;;;16.51;57.72;102211.47;5047762;28;46875;-91
2021/06/06 02:09:28;;;;;;;;;5.33;5.33;;;;;16.42;58.04;102196.28;5056996;28;45704;-92
2021/06/06 02:11:58;;;;;;;;;6.67;6.67;;;;;16.42;57.86;102190.06;5040841;28;45446;-92
2021/06/06 02:14:29;;;;;;;;;6.00;6.00;;;;;16.37;57.99;102197.06;5056835;28;45339;-91
2021/06/06 02:17:01;;;;;;;;;6.33;6.33;;;;;16.27;57.68;102186.28;5056192;28;47138;-93
2021/06/06 02:19:29;;;;;;;;;6.67;6.33;;;;;16.19;57.70;102172.00;5055708;28;45951;-91
2021/06/06 02:21:59;;;;;;;;;7.00;7.00;;;;;16.19;57.77;102177.31;5055839;28;45348;-92
2021/06/06 02:24:25;;;;;;;;;8.00;8.00;;;;;16.32;57.65;102196.97;5040189;28;45351;-93
2021/06/06 02:26:57;;;;;;;;;6.33;6.33;;;;;16.25;57.72;102190.66;5055679;28;47459;-93
2021/06/06 02:29:31;;;;;;;;;9.00;7.00;;;;;16.18;57.98;102173.75;5040217;28;45417;-92
2021/06/06 02:32:12;;;;;;;;;9.00;7.00;;;;;16.28;57.67;102195.16;5040380;28;45530;-91
2021/06/06 02:34:44;;;;;;;;;8.67;7.67;;;;;16.08;57.71;102162.09;5056206;28;45213;-91
2021/06/06 02:37:16;;;;;;;;;6.00;5.33;;;;;16.22;57.87;102192.38;5055164;28;48045;-90
2021/06/06 02:39:47;;;;;;;;;6.67;6.33;;;;;16.19;57.63;102186.16;5038471;28;45950;-92
2021/06/06 02:42:21;;;;;;;;;6.00;6.00;;;;;16.15;57.09;102180.78;5055217;28;45635;-91
2021/06/06 02:44:57;;;;;;;;;4.33;4.33;;;;;16.16;57.11;102177.25;5055436;28;45338;-92
2021/06/06 02:47:28;;;;;;;;;4.67;4.67;;;;;16.15;57.12;102180.78;5039164;28;47304;-91
2021/06/06 02:49:56;;;;;;;;;4.67;4.67;;;;;15.96;56.67;102156.53;5055400;28;45907;-91
2021/06/06 02:52:38;;;;;;;;;5.00;5.00;;;;;16.09;57.19;102184.22;5038889;28;45471;-90
2021/06/06 02:55:08;;;;;;;;;9.33;5.00;;;;;15.93;57.87;102151.16;5038690;28;45286;-91
2021/06/06 02:57:35;;;;;;;;;6.00;6.00;;;;;16.05;57.80;102174.41;5038366;28;47278;-92
2021/06/06 03:00:31;;;;;;;;;6.33;6.33;;;;;15.92;56.72;102155.59;5039980;28;45518;-92
2021/06/06 03:03:06;;;;;;;;;7.67;6.00;;;;;15.94;57.69;102160.94;5055478;28;45407;-92
2021/06/06 03:05:32;;;;;;;;;8.00;8.00;;;;;15.94;57.90;102161.81;5046407;28;45421;-92
2021/06/06 03:08:02;;;;;;;;;8.67;7.00;;;;;15.91;57.44;102158.19;5047537;28;48019;-91
2021/06/06 03:10:29;;;;;;;;;6.33;6.33;;;;;16.01;57.86;102176.06;5051630;28;45463;-93
2021/06/06 03:12:58;;;;;;;;;8.67;7.33;;;;;15.84;58.15;102149.25;5071598;28;45381;-92
2021/06/06 03:15:32;;;;;;;;;8.67;7.00;;;;;15.93;58.44;102170.63;5066340;28;44851;-90
2021/06/06 03:17:59;;;;;;;;;7.33;7.33;;;;;15.91;57.91;102166.16;5066059;28;47300;-92
2021/06/06 03:20:34;;;;;;;;;7.67;7.67;;;;;15.83;58.01;102158.06;5065772;28;44846;-92
2021/06/06 03:23:02;;;;;;;;;8.00;8.00;;;;;15.84;58.37;102160.75;5082180;27;44791;-92
2021/06/06 03:25:45;;;;;;;;;7.00;5.33;;;;;15.86;58.53;102168.75;5042670;28;45475;-92
2021/06/06 03:28:13;;;;;;;;;7.33;6.33;;;;;15.69;58.53;102141.91;5056242;28;47888;-91
2021/06/06 03:30:53;;;;;;;;;10.00;8.00;;;;;15.66;58.48;102128.59;5038347;28;45580;-93
2021/06/06 03:33:30;;;;;;;;;8.67;5.33;;;;;15.76;58.68;102159.72;5059091;28;44829;-91
2021/06/06 03:35:56;;;;;;;;;8.67;7.00;;;;;15.78;58.82;102168.59;5062522;28;45466;-92
2021/06/06 03:38:21;;;;;;;;;6.00;5.33;;;;;15.59;58.24;102138.19;5048535;28;47413;-92
2021/06/06 03:40:50;;;;;;;;;7.00;7.00;;;;;15.75;58.54;102171.19;5045113;28;45335;-94
2021/06/06 03:43:18;;;;;;;;;6.00;6.00;;;;;15.52;58.74;102135.41;5060220;28;45457;-93
2021/06/06 03:45:46;;;;;;;;;6.33;6.33;;;;;15.59;58.80;102152.34;5060165;28;45436;-91
2021/06/06 03:48:12;;;;;;;;;10.00;7.67;;;;;15.55;58.72;102141.63;5058727;28;47248;-92
2021/06/06 03:50:41;;;;;;;;;7.00;7.00;;;;;15.56;58.75;102148.75;5059042;28;45378;-91
2021/06/06 03:53:07;;;;;;;;;4.00;4.00;;;;;15.61;58.47;102163.00;5039788;28;45544;-91
2021/06/06 03:55:34;;;;;;;;;7.00;6.00;;;;;15.58;58.92;102165.56;5054957;28;45479;-92
2021/06/06 03:57:59;;;;;;;;;7.00;7.00;;;;;15.39;58.98;102136.94;5054342;28;48102;-93
2021/06/06 04:00:29;;;;;;;;;7.00;7.00;;;;;15.46;58.90;102150.31;5054106;28;45352;-90
2021/06/06 04:02:59;;;;;;;;;7.33;7.33;;;;;15.30;59.26;102125.25;5054914;28;45331;-90
2021/06/06 04:05:28;;;;;;;;;7.67;7.33;;;;;15.27;58.68;102119.03;5037824;28;45265;-91
2021/06/06 04:07:54;;;;;;;;;9.00;7.00;;;;;15.34;59.05;102138.59;5038069;28;47140;-92
2021/06/06 04:10:21;;;;;;;;;8.67;8.67;;;;;15.27;59.25;102139.34;5053791;28;45493;-94
2021/06/06 04:12:47;;;;;;;;;7.33;5.67;;;;;15.34;59.09;102149.19;5038884;28;45379;-93
2021/06/06 04:15:13;;;;;;;;;8.00;8.00;;;;;15.14;59.46;102117.88;5037883;28;45463;-93
2021/06/06 04:17:39;;;;;;;;;7.75;7.25;;;;;15.22;59.49;102133.97;5054408;28;46841;-91
2021/06/06 04:20:07;;;;;;;;;9.67;8.00;;;;;15.12;59.34;102122.25;5054979;28;45391;-91
2021/06/06 04:22:33;;;;;;;;;7.00;6.67;;;;;15.24;59.57;102141.94;5055470;28;45421;-92
2021/06/06 04:24:58;;;;;;;;;7.00;7.00;;;;;15.16;59.17;102132.09;5039344;28;45470;-91
2021/06/06 04:27:27;;;;;;;;;9.67;7.67;;;;;15.13;59.35;102142.59;5049042;28;48373;-93
2021/06/06 04:29:52;;;;;;;;;7.67;7.00;;;;;15.07;59.32;102129.22;5070695;28;45289;-92
2021/06/06 04:32:18;;;;;;;;;9.67;6.33;;;;;15.00;59.34;102127.28;5068177;28;45267;-91
2021/06/06 04:34:48;;;;;;;;;7.67;7.33;;;;;15.15;59.59;102163.81;5038673;28;45264;-91
2021/06/06 04:37:15;;;;;;;;;8.00;8.00;;;;;15.08;59.69;102152.19;5037802;28;47314;-91
2021/06/06 04:39:41;;;;;;;;;6.00;6.00;;;;;15.09;59.96;102153.09;5037990;28;45917;-93
2021/06/06 04:42:13;;;;;;;;;6.00;6.00;;;;;15.10;59.98;102144.28;5055768;28;45387;-92
2021/06/06 04:44:39;;;;;;;;;8.33;7.33;;;;;15.04;59.69;102134.44;5064111;28;45378;-92
2021/06/06 04:47:09;;;;;;;;;8.00;7.00;;;;;15.09;59.36;102159.28;5044450;28;47132;-92
2021/06/06 04:49:36;;;;;;;;;11.00;8.00;;;;;15.09;59.86;102159.28;5058702;28;45363;-94
2021/06/06 04:52:03;;;;;;;;;10.33;8.00;;;;;15.00;59.42;102143.19;5060681;28;44654;-93
2021/06/06 04:54:29;;;;;;;;;6.00;6.00;;;;;14.93;59.27;102136.88;5060809;28;44864;-92
2021/06/06 04:56:55;;;;;;;;;10.00;7.00;;;;;14.92;59.74;102143.94;5060830;28;47286;-92
2021/06/06 04:59:20;;;;;;;;;6.67;6.00;;;;;14.96;59.51;102147.53;5052784;28;45246;-93
2021/06/06 05:01:48;;;;;;;;;7.00;6.33;;;;;14.92;59.46;102138.63;5039206;28;45373;-92
2021/06/06 05:04:14;;;;;;;;;9.67;8.00;;;;;14.87;59.77;102142.91;5038480;28;45682;-91
2021/06/06 05:06:42;;;;;;;;;8.33;6.67;;;;;14.93;59.78;102143.06;5039778;28;45576;-91
2021/06/06 05:09:08;;;;;;;;;8.67;7.67;;;;;14.86;59.92;102133.19;5040855;28;45245;-91
2021/06/06 05:11:34;;;;;;;;;9.00;5.33;;;;;14.91;59.46;102144.78;5054589;28;45497;-92
2021/06/06 05:14:00;;;;;;;;;6.67;6.00;;;;;15.03;59.82;102172.41;5037971;28;45466;-91
2021/06/06 05:16:26;;;;;;;;;8.00;6.00;;;;;14.81;59.90;102129.50;5054259;28;48274;-93
2021/06/06 05:18:55;;;;;;;;;9.00;6.00;;;;;14.94;60.05;102151.91;5037020;28;45742;-92
2021/06/06 05:21:21;;;;;;;;;7.00;6.33;;;;;14.97;60.23;102153.72;5037528;28;45475;-92
2021/06/06 05:23:47;;;;;;;;;10.33;6.33;;;;;15.00;60.23;102153.78;5053867;28;45375;-92
2021/06/06 05:26:13;;;;;;;;;7.00;7.00;;;;;14.93;60.11;102142.19;5053602;28;47134;-91
2021/06/06 05:28:38;;;;;;;;;9.00;7.33;;;;;14.93;59.97;102143.06;5036780;28;45452;-93
2021/06/06 05:31:06;;;;;;;;;6.33;6.00;;;;;14.87;60.00;102131.47;5037099;28;45360;-93
2021/06/06 05:33:33;;;;;;;;;8.00;8.00;;;;;15.00;60.27;102153.78;5054898;28;45390;-92
2021/06/06 05:35:59;;;;;;;;;8.67;8.00;;;;;15.09;60.49;102161.03;5035531;28;48467;-88
2021/06/06 05:38:27;;;;;;;;;6.00;6.00;;;;;15.12;59.76;102166.41;5038189;28;45355;-86
2021/06/06 05:40:53;;;;;;;;;6.33;6.00;;;;;15.12;60.04;102164.63;5033346;28;45554;-89
2021/06/06 05:43:20;;;;;;;;;8.67;6.00;;;;;15.19;60.48;102170.09;5019569;28;45399;-88
2021/06/06 05:45:47;;;;;;;;;7.67;7.67;;;;;15.17;59.81;102162.09;5019327;28;45449;-87
2021/06/06 05:48:13;;;;;;;;;7.00;5.00;;;;;15.14;59.66;102141.72;5018477;28;46264;-87
2021/06/06 05:50:42;;;;;;;;;4.67;4.67;;;;;15.19;59.49;102156.84;5023523;28;45437;-88
2021/06/06 05:53:08;;;;;;;;;7.00;7.00;;;;;15.15;59.57;102151.47;5039771;28;45323;-88
2021/06/06 05:55:33;;;;;;;;;11.67;7.00;;;;;15.22;59.00;102164.84;5039375;28;45390;-88
2021/06/06 05:57:59;;;;;;;;;6.00;5.67;;;;;15.16;59.09;102147.97;5055093;28;45442;-88
2021/06/06 06:00:30;;;;;;;;;6.00;6.00;;;;;15.18;59.35;102150.66;5054971;28;45323;-89
2021/06/06 06:02:55;;;;;;;;;6.67;6.00;;;;;15.20;59.63;102155.97;5037197;28;45404;-88
2021/06/06 06:05:22;;;;;;;;;7.67;5.00;;;;;15.31;59.37;102164.16;5021391;28;45629;-88
2021/06/06 06:07:47;;;;;;;;;6.33;5.33;;;;;15.37;59.07;102181.06;5036952;28;45412;-88
2021/06/06 06:10:18;;;;;;;;;8.00;5.00;;;;;15.31;58.82;102165.06;5037572;28;45590;-90
2021/06/06 06:12:44;;;;;;;;;5.00;4.00;;;;;15.32;58.81;102172.13;5039354;28;45628;-89
2021/06/06 06:15:10;;;;;;;;;5.00;5.00;;;;;15.24;58.64;102141.94;5037578;28;47360;-88
2021/06/06 06:17:36;;;;;;;;;5.00;5.00;;;;;15.30;58.58;102154.41;5037533;28;46189;-88
2021/06/06 06:20:06;;;;;;;;;7.00;5.00;;;;;15.34;58.81;102157.16;5038868;28;45700;-89
2021/06/06 06:22:32;;;;;;;;;5.67;5.00;;;;;15.39;58.70;102160.81;5038799;28;45378;-89
2021/06/06 06:24:57;;;;;;;;;4.00;4.00;;;;;15.37;58.22;102151.94;5038438;28;45665;-87
2021/06/06 06:27:22;;;;;;;;;5.00;5.00;;;;;15.44;58.20;102160.88;5038924;28;45487;-88
2021/06/06 06:29:48;;;;;;;;;5.00;3.33;;;;;15.50;58.55;102173.38;5038828;28;45417;-88
2021/06/06 06:32:14;;;;;;;;;5.00;4.00;;;;;15.42;58.32;102153.78;5038889;28;45427;-90
2021/06/06 06:34:40;;;;;;;;;4.33;4.33;;;;;15.57;58.85;102179.66;5038934;28;46531;-89
2021/06/06 06:37:07;;;;;;;;;4.33;4.33;;;;;15.59;57.68;102178.84;5039332;28;45435;-88
2021/06/06 06:39:33;;;;;;;;;4.67;4.67;;;;;15.58;58.25;102178.81;5039466;28;45323;-88
2021/06/06 06:41:58;;;;;;;;;3.00;3.00;;;;;15.52;58.00;102167.22;5038635;28;45467;-90
2021/06/06 06:44:24;;;;;;;;;5.00;5.00;;;;;15.64;58.20;102181.59;5039029;28;45527;-87
2021/06/06 06:46:49;;;;;;;;;6.33;3.33;;;;;15.59;58.29;102165.59;5038200;28;45405;-89
2021/06/06 06:49:15;;;;;;;;;6.33;4.67;;;;;15.66;58.34;102179.84;5035887;28;45447;-88
2021/06/06 06:51:40;;;;;;;;;6.67;4.00;;;;;15.59;57.21;102157.63;5038678;28;45363;-89
2021/06/06 06:54:07;;;;;;;;;5.00;5.00;;;;;15.62;58.04;102157.72;5038600;28;45278;-87
2021/06/06 06:56:33;;;;;;;;;4.33;3.33;;;;;15.70;57.40;102167.53;5037166;28;45357;-88
2021/06/06 06:58:59;;;;;;;;;3.67;2.00;;;;;15.79;57.39;102173.03;5038510;28;45328;-90
2021/06/06 07:01:25;;;;;;;;;3.00;3.00;;;;;15.84;57.32;102189.91;5038208;28;45468;-88
2021/06/06 07:03:51;;;;;;;;;4.33;3.33;;;;;15.82;56.41;102172.22;5053897;28;47475;-88
2021/06/06 07:06:18;;;;;;;;;4.00;3.33;;;;;15.80;56.46;102168.63;5036733;28;45486;-89
2021/06/06 07:08:44;;;;;;;;;6.00;3.67;;;;;15.92;57.20;102178.56;5037557;28;45472;-88
2021/06/06 07:11:13;;;;;;;;;5.67;4.00;;;;;15.85;57.03;102161.66;5039035;28;45476;-87
2021/06/06 07:13:39;;;;;;;;;3.00;3.00;;;;;15.90;57.44;102164.38;5041081;28;45347;-88
2021/06/06 07:16:07;;;;;;;;;3.67;3.33;;;;;15.90;57.73;102169.69;5041526;28;45365;-87
2021/06/06 07:18:33;;;;;;;;;4.00;2.67;;;;;15.93;56.88;102159.13;5041244;28;45269;-89
2021/06/06 07:21:02;;;;;;;;;4.00;3.00;;;;;16.07;57.19;102186.84;5046165;28;45447;-88
2021/06/06 07:23:30;;;;;;;;;2.33;2.00;;;;;16.03;56.07;102165.53;5040538;28;48420;-87
2021/06/06 07:25:58;;;;;;;;;3.00;3.00;;;;;16.10;57.15;102172.72;5056175;28;45313;-88
2021/06/06 07:28:26;;;;;;;;;3.00;2.00;;;;;16.04;57.14;102162.00;5044079;28;45391;-88
2021/06/06 07:30:54;;;;;;;;;2.00;2.00;;;;;16.13;57.04;102179.84;5047146;28;45450;-88
2021/06/06 07:33:28;;;;;;;;;2.33;2.00;;;;;16.27;56.05;102191.59;5043766;28;48235;-89
2021/06/06 07:35:55;;;;;;;;;2.00;2.00;;;;;16.19;56.42;102174.66;5042655;28;46016;-92
2021/06/06 07:38:23;;;;;;;;;2.00;2.00;;;;;16.27;56.79;102173.00;5039665;28;45224;-91
2021/06/06 07:40:50;;;;;;;;;3.00;3.00;;;;;16.27;56.75;102165.06;5038109;28;45555;-90
2021/06/06 07:43:15;;;;;;;;;2.00;2.00;;;;;16.26;56.44;102165.94;5036881;28;48234;-93
2021/06/06 07:45:41;;;;;;;;;3.00;3.00;;;;;16.41;56.58;102173.22;5038075;28;45423;-89
2021/06/06 07:48:08;;;;;;;;;3.00;3.00;;;;;16.52;56.74;102186.69;5036466;28;45455;-89
2021/06/06 07:50:38;;;;;;;;;4.00;4.00;;;;;16.41;56.34;102161.75;5036392;28;45543;-89
2021/06/06 07:53:04;;;;;;;;;3.67;3.67;;;;;16.50;55.76;102172.50;5020321;28;48290;-90
2021/06/06 07:55:31;;;;;;;;;4.00;3.00;;;;;16.49;55.02;102164.50;5037417;28;45390;-88
2021/06/06 07:57:57;;;;;;;;;5.00;4.00;;;;;16.66;55.46;102186.03;5037352;28;45390;-90
2021/06/06 08:00:29;;;;;;;;;3.33;3.00;;;;;16.61;53.93;102166.47;5035988;28;45440;-88
2021/06/06 08:02:56;;;;;;;;;3.00;3.00;;;;;16.87;55.74;102189.84;5037850;28;46251;-89
2021/06/06 08:05:22;;;;;;;;;3.33;3.00;;;;;16.82;55.02;102178.25;5054623;28;45773;-89
2021/06/06 08:07:48;;;;;;;;;3.00;3.00;;;;;16.88;54.65;102173.03;5039720;28;45462;-89
2021/06/06 08:10:16;;;;;;;;;2.00;2.00;;;;;17.05;54.44;102167.09;5043186;28;45157;-89
2021/06/06 08:12:42;;;;;;;;;4.00;2.67;;;;;17.17;55.55;102150.44;5051534;28;46117;-89
2021/06/06 08:15:09;;;;;;;;;2.67;2.67;;;;;17.51;53.86;102181.84;5063260;28;44889;-88
2021/06/06 08:17:35;;;;;;;;;1.67;1.67;;;;;17.76;54.98;102182.13;5063696;28;44800;-87
2021/06/06 08:20:01;;;;;;;;;2.67;2.67;;;;;17.92;54.68;102162.78;5058891;28;44750;-88
2021/06/06 08:22:26;;;;;;;;;4.00;4.00;;;;;18.20;54.19;102158.63;5038012;28;46380;-90
2021/06/06 08:24:52;;;;;;;;;3.33;3.33;;;;;18.56;54.36;102167.78;5036636;28;45488;-93
2021/06/06 08:27:17;;;;;;;;;1.33;1.33;;;;;18.89;52.49;102180.41;5037193;28;45314;-92
2021/06/06 08:29:43;;;;;;;;;4.67;3.33;;;;;19.08;51.69;102158.28;5033452;28;45430;-91
2021/06/06 08:32:10;;;;;;;;;2.00;2.00;;;;;19.47;51.97;102173.56;5016640;28;46106;-90
2021/06/06 08:34:36;;;;;;;;;2.67;2.00;;;;;19.64;51.91;102154.06;5026938;28;45340;-90
2021/06/06 08:37:03;;;;;;;;;2.33;2.33;;;;;20.04;51.01;102171.91;5017991;28;45285;-90
2021/06/06 08:39:32;;;;;;;;;3.67;2.67;;;;;20.52;51.47;102175.50;5034672;28;45565;-91
2021/06/06 08:42:07;;;;;;;;;2.67;2.67;;;;;21.21;49.69;102164.63;5017797;28;46172;-90
2021/06/06 08:44:43;;;;;;;;;2.67;2.67;;;;;21.98;48.26;102167.75;5017411;28;45434;-89
2021/06/06 08:47:18;;;;;;;;;2.00;2.00;;;;;22.82;47.32;102155.41;5018541;28;45319;-87
2021/06/06 08:49:51;;;;;;;;;2.33;2.33;;;;;23.62;45.51;102148.13;5018536;28;45335;-94
2021/06/06 08:52:53;;;;;;;;;3.67;2.67;;;;;24.13;44.37;102168.81;5017703;28;45453;-88
2021/06/06 08:55:19;;;;;;;;;3.00;2.00;;;;;24.02;44.17;102171.66;5021730;28;45441;-89
2021/06/06 08:57:52;;;;;;;;;2.33;2.00;;;;;23.91;43.60;102155.72;5019780;28;45289;-87
2021/06/06 09:00:22;;;;;;;;;3.00;2.67;;;;;23.96;43.11;102154.75;5019539;28;45355;-88
2021/06/06 09:03:01;;;;;;;;;3.00;3.00;;;;;24.09;44.07;102159.03;5019237;28;45485;-88
2021/06/06 09:05:36;;;;;;;;;3.00;3.00;;;;;24.22;43.31;102153.44;5034054;28;45864;-88
2021/06/06 09:08:04;;;;;;;;;4.67;4.00;;;;;24.57;43.10;102173.41;5020984;28;44776;-88
2021/06/06 09:10:35;;;;;;;;;5.00;3.00;;;;;24.83;43.16;102163.94;5037540;28;45519;-89
2021/06/06 09:13:04;;;;;;;;;4.33;3.00;;;;;25.17;42.15;102161.53;5020850;28;47248;-88
2021/06/06 09:15:30;;;;;;;;;6.67;4.00;;;;;25.56;42.14;102152.56;5023081;28;45323;-88
2021/06/06 09:18:14;;;;;;;;;3.00;2.67;;;;;26.21;41.44;102136.63;5022470;28;45435;-88
2021/06/06 09:20:42;;;;;;;;;4.00;4.00;;;;;26.83;39.36;102144.84;5023461;28;45441;-87
2021/06/06 09:23:29;;;;;;;;;3.67;3.00;;;;;27.53;39.31;102154.47;5022717;28;46217;-89
2021/06/06 09:26:07;;;;;;;;;2.33;2.33;;;;;28.28;38.44;102153.84;5021156;28;45717;-87
2021/06/06 09:28:37;;;;;;;;;3.00;3.00;;;;;28.59;38.60;102147.34;5024692;28;45336;-87
2021/06/06 09:31:20;;;;;;;;;3.00;3.00;;;;;28.93;37.74;102163.25;5029979;28;45294;-88
2021/06/06 09:33:48;;;;;;;;;3.00;3.00;;;;;29.11;37.56;102153.56;5022549;28;46070;-89
2021/06/06 09:36:29;;;;;;;;;5.67;4.00;;;;;29.83;36.56;102172.41;5019440;28;45348;-91
2021/06/06 09:39:00;;;;;;;;;3.00;3.00;;;;;30.64;35.40;102168.06;5035565;28;45445;-91
2021/06/06 09:41:25;;;;;;;;;3.67;3.00;;;;;31.19;34.61;102168.28;5026217;28;44717;-92
2021/06/06 09:44:06;;;;;;;;;3.00;3.00;;;;;31.52;33.97;102174.88;5024284;28;45414;-84
2021/06/06 09:46:41;;;;;;;;;5.00;4.00;;;;;31.38;32.85;102171.00;5022003;28;45399;-85
2021/06/06 09:49:24;;;;;;;;;4.00;3.00;;;;;30.92;33.06;102163.22;5025021;28;45446;-91
2021/06/06 09:51:51;;;;;;;;;4.00;3.33;;;;;30.37;33.01;102150.25;5039903;28;45451;-90
2021/06/06 09:54:26;;;;;;;;;4.00;3.00;;;;;29.84;34.08;102163.34;5025810;28;45548;-94
2021/06/06 09:56:55;;;;;;;;;5.33;3.67;;;;;29.28;33.58;102173.66;5017821;28;45430;-83
2021/06/06 09:59:26;;;;;;;;;4.00;4.00;;;;;28.85;35.04;102175.25;5019619;28;45232;-83
2021/06/06 10:01:57;;;;;;;;;3.67;3.67;;;;;28.48;34.39;102176.59;5018979;28;45390;-84
2021/06/06 10:04:30;;;;;;;;;2.33;2.33;;;;;28.11;34.05;102173.34;5018595;28;46007;-84
2021/06/06 10:07:11;;;;;;;;;5.67;4.33;;;;;27.72;34.85;102172.78;5018524;28;45420;-83
2021/06/06 10:09:40;;;;;;;;;2.00;2.00;;;;;27.33;35.43;102163.22;5018890;28;45412;-84
2021/06/06 10:12:12;;;;;;;;;4.00;4.00;;;;;27.00;36.90;102162.34;5018771;28;45248;-85
2021/06/06 10:14:50;;;;;;;;;4.67;4.00;;;;;26.84;37.22;102172.72;5018716;28;45454;-85
2021/06/06 10:17:24;;;;;;;;;4.33;3.00;;;;;26.71;36.84;102175.72;5018478;28;45296;-82
2021/06/06 10:19:55;;;;;;;;;4.00;4.00;;;;;26.57;36.79;102164.44;5018494;28;45293;-82
2021/06/06 10:22:27;;;;;;;;;4.00;4.00;;;;;26.46;35.49;102162.94;5018567;28;45376;-84
2021/06/06 10:24:59;;;;;;;;;2.67;2.67;;;;;26.30;36.89;102164.25;5018391;28;45956;-83
2021/06/06 10:27:32;;;;;;;;;5.67;3.00;;;;;26.12;36.51;102162.00;5018155;28;45294;-84
2021/06/06 10:30:11;;;;;;;;;6.67;4.33;;;;;26.12;36.81;102167.38;5018506;28;45433;-83
2021/06/06 10:32:45;;;;;;;;;5.00;4.00;;;;;26.59;37.25;102163.50;5018517;28;45450;-83
2021/06/06 10:35:22;;;;;;;;;4.00;4.00;;;;;26.81;37.17;102157.50;5018018;28;46506;-84
2021/06/06 10:37:52;;;;;;;;;6.00;4.00;;;;;27.01;36.15;102156.00;5017790;28;45462;-83
2021/06/06 10:40:31;;;;;;;;;4.00;4.00;;;;;27.66;36.88;102167.59;5018232;28;45495;-83
2021/06/06 10:43:25;;;;;;;;;5.00;5.00;;;;;29.09;36.17;102160.88;5018421;28;45238;-83
2021/06/06 10:45:59;;;;;;;;;7.00;5.00;;;;;29.91;36.26;102166.69;5018333;28;45272;-82
2021/06/06 10:48:24;;;;;;;;;4.00;3.00;;;;;30.38;35.29;102160.16;5016597;28;45442;-77
2021/06/06 10:51:11;;;;;;;;;6.00;4.67;;;;;30.56;33.98;102165.72;5018388;28;45355;-82
2021/06/06 10:53:37;;;;;;;;;5.00;4.33;;;;;30.96;34.54;102153.97;5034138;28;45589;-93
2021/06/06 10:56:13;;;;;;;;;5.00;5.00;;;;;32.30;33.32;102159.25;5019943;28;45506;-89
2021/06/06 10:58:38;;;;;;;;;4.67;4.67;;;;;34.18;31.42;102157.78;5021844;28;45479;-85
2021/06/06 11:01:26;;;;;;;;;4.33;4.33;;;;;34.79;29.40;102152.34;5033877;28;45897;-87
2021/06/06 11:04:07;;;;;;;;;3.67;3.00;;;;;33.44;29.22;102160.34;5020796;28;45372;-85
2021/06/06 11:06:35;;;;;;;;;5.00;5.00;;;;;32.13;30.08;102145.56;5018466;28;45281;-86
2021/06/06 11:09:02;;;;;;;;;6.33;6.33;;;;;31.44;31.35;102146.25;5018462;28;45537;-81
2021/06/06 11:11:37;;;;;;;;;5.00;4.00;;;;;31.03;32.37;102139.16;5018078;28;45450;-86
2021/06/06 11:14:09;;;;;;;;;2.00;2.00;;;;;30.77;33.25;102135.81;5018138;28;45347;-84
2021/06/06 11:16:44;;;;;;;;;5.33;4.67;;;;;30.54;33.25;102143.19;5017632;28;45563;-82
2021/06/06 11:19:18;;;;;;;;;7.67;6.00;;;;;30.27;31.65;102133.50;5017330;28;45365;-86
2021/06/06 11:22:09;;;;;;;;;4.00;4.00;;;;;30.09;33.20;102137.88;5018123;28;45360;-84
2021/06/06 11:24:44;;;;;;;;;4.00;4.00;;;;;29.76;32.84;102133.84;5018303;28;45178;-94
2021/06/06 11:27:15;;;;;;;;;5.33;4.67;;;;;29.45;33.67;102141.41;5033113;28;47232;-85
2021/06/06 11:29:50;;;;;;;;;2.67;2.67;;;;;29.12;34.03;102133.69;5017843;28;45462;-85
2021/06/06 11:32:52;;;;;;;;;3.67;3.67;;;;;28.70;32.91;102130.72;5017387;28;45391;-82
2021/06/06 11:35:24;;;;;;;;;5.33;4.67;;;;;28.33;34.04;102120.28;5017246;28;45210;-84
2021/06/06 11:37:57;;;;;;;;;4.00;4.00;;;;;28.23;34.44;102121.56;5017460;28;45549;-84